Time,TemperatureF,DewpointF,PressureIn,WindDirection,WindDirectionDegrees,WindSpeedMPH,WindSpeedGustMPH,Humidity,HourlyPrecipIn,Conditions,Clouds,dailyrainin,SoftwareType,DateUTC
2013-02-28 00:15:00,31.8,24.1,29.37,NE,48,0.0,0.0,73,0.00,,,0.00,Wunderground v.1.12,2013-02-28 05:15:00,
2013-02-28 00:45:00,31.7,24.0,29.36,NE,48,0.0,0.0,73,0.00,,,0.00,Wunderground v.1.12,2013-02-28 05:45:00,
2013-02-28 01:15:00,31.7,24.0,29.35,NE,48,0.0,0.0,73,0.00,,,0.00,Wunderground v.1.12,2013-02-28 06:15:00,
2013-02-28 01:45:00,31.6,23.9,29.34,NE,48,0.0,0.0,73,0.00,,,0.00,Wunderground v.1.12,2013-02-28 06:45:00,
2013-02-28 02:15:00,31.6,23.9,29.33,NE,48,0.0,0.0,73,0.00,,,0.00,Wunderground v.1.12,2013-02-28 07:15:00,
2013-02-28 02:45:00,31.5,23.8,29.32,NE,48,0.0,0.0,73,0.00,,,0.00,Wunderground v.1.12,2013-02-28 07:45:00,
2013-02-28 03:15:00,31.5,23.8,29.31,NE,48,0.0,0.0,73,0.00,,,0.00,Wunderground v.1.12,2013-02-28 08:15:00,
2013-02-28 03:45:00,31.4,24.1,29.30,NE,48,0.0,0.0,74,0.00,,,0.00,Wunderground v.1.12,2013-02-28 08:45:00,
2013-02-28 04:15:00,31.4,24.1,29.31,NE,48,0.0,0.0,74,0.00,,,0.00,Wunderground v.1.12,2013-02-28 09:15:00,
2013-02-28 04:45:00,31.3,23.6,29.31,NE,48,0.0,0.0,73,0.00,,,0.00,Wunderground v.1.12,2013-02-28 09:45:00,
2013-02-28 05:15:00,31.3,23.6,29.31,NE,48,0.0,0.0,73,0.00,,,0.00,Wunderground v.1.12,2013-02-28 10:15:00,
2013-02-28 05:45:00,31.2,23.5,29.31,NE,48,0.0,0.0,73,0.00,,,0.00,Wunderground v.1.12,2013-02-28 10:45:00,
2013-02-28 06:15:00,31.2,23.5,29.31,NE,48,0.0,0.0,73,0.00,,,0.00,Wunderground v.1.12,2013-02-28 11:15:00,
2013-02-28 06:45:00,31.2,23.5,29.32,NE,48,0.0,0.0,73,0.00,,,0.00,Wunderground v.1.12,2013-02-28 11:45:00,
2013-02-28 07:15:00,31.5,23.8,29.32,NE,48,0.0,0.0,73,0.00,,,0.00,Wunderground v.1.12,2013-02-28 12:15:00,
2013-02-28 07:45:00,31.9,24.2,29.33,NE,48,0.0,0.0,73,0.00,,,0.00,Wunderground v.1.12,2013-02-28 12:45:00,
2013-02-28 08:15:00,33.7,26.3,29.33,NE,48,0.0,0.0,74,0.00,,,0.00,Wunderground v.1.12,2013-02-28 13:15:00,
2013-02-28 08:45:00,35.1,27.0,29.34,NE,53,0.0,0.0,72,0.00,,,0.00,Wunderground v.1.12,2013-02-28 13:45:00,
2013-02-28 09:15:00,36.5,28.7,29.34,ENE,61,0.0,0.0,73,0.00,,,0.00,Wunderground v.1.12,2013-02-28 14:15:00,
2013-02-28 09:45:00,36.8,28.3,29.34,South,177,2.0,2.0,71,0.00,,,0.00,Wunderground v.1.12,2013-02-28 14:45:00,
2013-02-28 10:15:00,37.5,28.9,29.34,SSW,193,1.0,1.0,71,0.00,,,0.00,Wunderground v.1.12,2013-02-28 15:15:00,
2013-02-28 10:45:00,38.9,27.4,29.34,SSW,194,1.0,1.0,63,0.00,,,0.00,Wunderground v.1.12,2013-02-28 15:45:00,
2013-02-28 11:15:00,38.5,26.6,29.35,SW,215,0.0,0.0,62,0.00,,,0.00,Wunderground v.1.12,2013-02-28 16:15:00,
2013-02-28 11:45:00,40.2,27.4,29.35,SSW,196,1.0,1.0,60,0.00,,,0.00,Wunderground v.1.12,2013-02-28 16:45:00,
2013-02-28 12:15:00,41.7,27.6,29.35,SSW,201,0.0,0.0,57,0.00,,,0.00,Wunderground v.1.12,2013-02-28 17:15:00,
2013-02-28 12:45:00,40.9,27.7,29.35,South,191,0.0,0.0,59,0.00,,,0.00,Wunderground v.1.12,2013-02-28 17:45:00,
2013-02-28 13:15:00,39.7,26.5,29.35,South,185,0.0,0.0,59,0.00,,,0.00,Wunderground v.1.12,2013-02-28 18:15:00,
2013-02-28 13:45:00,39.9,27.1,29.35,South,185,0.0,0.0,60,0.00,,,0.00,Wunderground v.1.12,2013-02-28 18:45:00,
2013-02-28 14:15:00,38.4,26.5,29.36,South,183,0.0,0.0,62,0.00,,,0.00,Wunderground v.1.12,2013-02-28 19:15:00,
2013-02-28 14:45:00,38.7,26.8,29.36,SSW,193,0.0,0.0,62,0.00,,,0.00,Wunderground v.1.12,2013-02-28 19:45:00,
2013-02-28 15:15:00,38.1,26.6,29.37,SSW,193,0.0,0.0,63,0.00,,,0.00,Wunderground v.1.12,2013-02-28 20:15:00,
2013-02-28 15:45:00,37.6,26.1,29.38,SSW,194,0.0,0.0,63,0.00,,,0.00,Wunderground v.1.12,2013-02-28 20:45:00,
2013-02-28 16:15:00,37.1,25.7,29.38,SSW,195,0.0,0.0,63,0.00,,,0.00,Wunderground v.1.12,2013-02-28 21:15:00,
2013-02-28 16:45:00,36.3,26.4,29.39,SSW,196,0.0,0.0,67,0.00,,,0.00,Wunderground v.1.12,2013-02-28 21:45:00,
2013-02-28 17:15:00,35.3,25.8,29.40,SSW,195,0.0,0.0,68,0.00,,,0.00,Wunderground v.1.12,2013-02-28 22:15:00,
2013-02-28 17:45:00,34.6,26.5,29.41,SSW,195,0.0,0.0,72,0.00,,,0.00,Wunderground v.1.12,2013-02-28 22:45:00,
2013-02-28 18:15:00,33.8,26.1,29.41,SSW,195,0.0,0.0,73,0.00,,,0.00,Wunderground v.1.12,2013-02-28 23:15:00,
2013-02-28 18:45:00,33.7,25.6,29.42,SSW,196,0.0,0.0,72,0.00,,,0.00,Wunderground v.1.12,2013-02-28 23:45:00,
2013-02-28 19:15:00,33.1,24.4,29.43,SSW,196,0.0,0.0,70,0.00,,,0.00,Wunderground v.1.12,2013-03-01 00:15:00,
2013-02-28 19:45:00,33.1,24.4,29.43,SSW,196,0.0,0.0,70,0.00,,,0.00,Wunderground v.1.12,2013-03-01 00:45:00,
2013-02-28 20:15:00,33.1,24.4,29.41,N/A,-737280,0.0,0.0,70,0.00,,,0.28,Wunderground v.1.12,2013-03-01 01:15:00,
2013-02-28 20:45:00,32.9,24.2,29.44,SSW,195,0.0,0.0,70,0.00,,,0.00,Wunderground v.1.12,2013-03-01 01:45:00,
2013-02-28 21:15:00,33.2,24.8,29.44,SSW,195,0.0,0.0,71,0.00,,,0.00,Wunderground v.1.12,2013-03-01 02:15:00,
2013-02-28 21:45:00,33.1,24.7,29.44,SSW,195,0.0,0.0,71,0.00,,,0.00,Wunderground v.1.12,2013-03-01 02:45:00,
2013-02-28 22:15:00,33.1,24.7,29.45,SSW,194,0.0,0.0,71,0.00,,,0.00,Wunderground v.1.12,2013-03-01 03:15:00,
2013-02-28 22:45:00,32.9,24.5,29.45,SSW,194,0.0,0.0,71,0.00,,,0.00,Wunderground v.1.12,2013-03-01 03:45:00,
2013-02-28 23:15:00,32.8,24.4,29.46,SSE,158,0.0,0.0,71,0.00,,,0.00,Wunderground v.1.12,2013-03-01 04:15:00,
2013-02-28 23:45:00,32.5,23.8,29.46,SSE,158,0.0,0.0,70,0.00,,,0.00,Wunderground v.1.12,2013-03-01 04:45:00,